Garden Point, Australia
Current Conditions -  °F | °C
As of 2:00 PM on Sunday 21 Dec 2014 (Local Time) from YPDN Reporting Station
Broken Clouds Broken Clouds  
Wind Chill: 90°   Ceiling: 30000
Heat Index: 105°   Visibility: 6mi
Dew Point: 79°   Wind: 8mph
Humidity: 70%   Direction: 340°NNW
Pressure: 29.71"   Gusts: NA
Location:  11.4°S, 130.43°E
Report Text: YPDN 210500Z 34007KT 9999 FEW030 BKN300 32/26 Q1006 NOSIG
Loading
Personal Weather Stations






























Interactive Weather Map New forecast layout! Learn more

10-Day Weather Forecast

Advertisements
Track Severe Weather on mobile